createdAt,value
2023-02-23T00:02:08.406Z,5.32
2023-02-23T00:04:37.001Z,4.82
2023-02-23T00:07:06.427Z,4.82
2023-02-23T00:09:37.944Z,5.57
2023-02-23T00:12:09.794Z,5.95
2023-02-23T00:14:38.662Z,5.70
2023-02-23T00:17:14.278Z,5.38
2023-02-23T00:19:43.925Z,5.50
2023-02-23T00:22:12.788Z,4.93
2023-02-23T00:24:42.780Z,5.43
2023-02-23T00:27:13.126Z,5.82
2023-02-23T00:29:41.305Z,5.93
2023-02-23T00:32:09.274Z,5.72
2023-02-23T00:34:37.517Z,5.63
2023-02-23T00:37:05.600Z,5.60
2023-02-23T00:39:33.547Z,5.95
2023-02-23T00:42:03.489Z,5.72
2023-02-23T00:44:35.023Z,5.38
2023-02-23T00:47:04.214Z,5.35
2023-02-23T00:49:32.763Z,5.57
2023-02-23T00:52:04.640Z,5.40
2023-02-23T00:54:32.799Z,6.50
2023-02-23T00:57:00.566Z,5.45
2023-02-23T00:59:29.710Z,5.68
2023-02-23T01:01:57.628Z,5.57
2023-02-23T01:04:25.780Z,5.95
2023-02-23T01:06:53.723Z,5.30
2023-02-23T01:09:28.245Z,5.45
2023-02-23T01:11:57.258Z,5.93
2023-02-23T01:14:25.269Z,5.90
2023-02-23T01:16:53.071Z,6.00
2023-02-23T01:19:21.303Z,5.72
2023-02-23T01:21:50.006Z,6.05
2023-02-23T01:24:18.826Z,6.45
2023-02-23T01:26:46.895Z,5.68
2023-02-23T01:29:18.757Z,6.03
2023-02-23T01:31:48.952Z,6.50
2023-02-23T01:34:24.171Z,5.95
2023-02-23T01:36:52.336Z,6.30
2023-02-23T01:39:21.572Z,6.15
2023-02-23T01:41:51.965Z,6.22
2023-02-23T01:44:20.077Z,6.82
2023-02-23T01:46:49.705Z,6.78
2023-02-23T01:49:21.986Z,6.60
2023-02-23T01:52:07.545Z,6.68
2023-02-23T01:54:39.271Z,6.15
2023-02-23T01:57:12.370Z,6.63
2023-02-23T01:59:43.806Z,5.88
2023-02-23T02:02:13.602Z,6.90
2023-02-23T02:04:46.482Z,6.30
2023-02-23T02:07:18.874Z,6.63
2023-02-23T02:10:13.643Z,6.18
2023-02-23T02:12:49.167Z,6.05
2023-02-23T02:15:17.611Z,6.60
2023-02-23T02:18:18.603Z,5.78
2023-02-23T02:21:16.349Z,6.10
2023-02-23T02:24:16.312Z,5.75
2023-02-23T02:26:47.131Z,6.70
2023-02-23T02:29:28.807Z,6.03
2023-02-23T02:32:17.719Z,6.47
2023-02-23T02:35:32.095Z,6.10
2023-02-23T02:38:25.094Z,6.13
2023-02-23T02:41:04.389Z,6.07
2023-02-23T02:43:44.441Z,6.68
2023-02-23T02:46:20.191Z,6.15
2023-02-23T02:49:14.848Z,5.90
2023-02-23T02:54:37.013Z,6.05
2023-02-23T02:57:06.937Z,6.57
2023-02-23T03:00:06.972Z,6.63
2023-02-23T03:02:59.382Z,6.32
2023-02-23T03:05:58.986Z,7.30
2023-02-23T03:08:58.270Z,6.00
2023-02-23T03:11:54.145Z,5.95
2023-02-23T03:15:14.376Z,6.55
2023-02-23T03:18:05.311Z,6.35
2023-02-23T03:20:57.276Z,6.32
2023-02-23T03:24:12.968Z,7.07
2023-02-23T03:27:17.278Z,6.88
2023-02-23T03:33:18.312Z,6.63
2023-02-23T03:36:10.502Z,6.72
2023-02-23T03:39:12.214Z,6.65
2023-02-23T03:42:00.519Z,6.53
2023-02-23T03:44:57.462Z,6.80
2023-02-23T03:47:49.976Z,6.70
2023-02-23T03:50:50.609Z,6.63
2023-02-23T03:53:43.825Z,7.20
2023-02-23T03:56:33.180Z,7.40
2023-02-23T03:59:22.601Z,6.60
2023-02-23T04:02:13.092Z,6.90
2023-02-23T04:05:02.113Z,6.93
2023-02-23T04:07:49.374Z,6.63
2023-02-23T04:10:35.912Z,6.82
2023-02-23T04:13:16.799Z,6.97
2023-02-23T04:15:51.500Z,7.80
2023-02-23T04:18:30.827Z,6.70
2023-02-23T04:20:59.290Z,7.30
2023-02-23T04:23:28.166Z,7.97
2023-02-23T04:25:56.999Z,7.30
2023-02-23T04:28:27.044Z,7.05
2023-02-23T04:30:55.324Z,6.20
2023-02-23T04:33:25.498Z,7.28
2023-02-23T04:35:56.688Z,6.82
2023-02-23T04:38:24.800Z,7.45
2023-02-23T04:40:52.726Z,7.20
2023-02-23T04:43:20.640Z,7.05
2023-02-23T04:45:48.573Z,7.18
2023-02-23T04:48:16.259Z,7.10
2023-02-23T04:50:44.160Z,7.85
2023-02-23T04:53:12.062Z,7.10
2023-02-23T04:55:40.082Z,6.82
2023-02-23T04:58:13.626Z,6.70
2023-02-23T05:00:42.067Z,6.72
2023-02-23T05:03:10.768Z,6.82
2023-02-23T05:05:39.613Z,7.15
2023-02-23T05:08:07.430Z,6.57
2023-02-23T05:10:35.821Z,7.50
2023-02-23T05:13:03.519Z,6.82
2023-02-23T05:15:31.514Z,6.65
2023-02-23T05:17:59.252Z,5.97
2023-02-23T05:20:27.542Z,5.47
2023-02-23T05:22:55.258Z,5.65
2023-02-23T05:25:23.181Z,5.60
2023-02-23T05:27:51.285Z,6.47
2023-02-23T05:30:19.243Z,5.88
2023-02-23T05:32:46.886Z,5.45
2023-02-23T05:35:14.891Z,5.57
2023-02-23T05:37:42.480Z,5.82
2023-02-23T05:40:11.127Z,5.63
2023-02-23T05:42:38.845Z,5.38
2023-02-23T05:45:07.679Z,5.78
2023-02-23T05:47:38.790Z,6.00
2023-02-23T05:50:08.961Z,6.05
2023-02-23T05:52:41.530Z,4.95
2023-02-23T05:55:11.776Z,6.00
2023-02-23T05:57:41.220Z,5.07
2023-02-23T06:00:10.203Z,5.00
2023-02-23T06:02:37.963Z,5.22
2023-02-23T06:05:06.345Z,5.47
2023-02-23T06:07:34.050Z,5.32
2023-02-23T06:10:02.018Z,5.30
2023-02-23T06:12:29.670Z,5.32
2023-02-23T06:14:57.697Z,5.70
2023-02-23T06:17:25.614Z,5.70
2023-02-23T06:19:53.642Z,5.18
2023-02-23T06:22:21.252Z,5.32
2023-02-23T06:24:49.676Z,5.45
2023-02-23T06:27:17.379Z,5.47
2023-02-23T06:29:45.436Z,5.80
2023-02-23T06:32:13.211Z,6.10
2023-02-23T06:34:47.340Z,5.95
2023-02-23T06:37:15.243Z,7.43
2023-02-23T06:39:43.121Z,7.15
2023-02-23T06:42:10.774Z,7.53
2023-02-23T06:44:39.818Z,7.72
2023-02-23T06:47:07.501Z,6.88
2023-02-23T06:49:35.423Z,5.97
2023-02-23T06:52:03.135Z,5.28
2023-02-23T06:54:31.149Z,5.95
2023-02-23T06:56:59.002Z,6.10
2023-02-23T06:59:27.188Z,6.32
2023-02-23T07:01:54.891Z,7.07
2023-02-23T07:04:23.319Z,6.20
2023-02-23T07:06:51.606Z,6.60
2023-02-23T07:09:19.629Z,6.70
2023-02-23T07:11:47.378Z,7.15
2023-02-23T07:14:26.089Z,6.18
2023-02-23T07:16:54.787Z,5.57
2023-02-23T07:19:23.439Z,6.53
2023-02-23T07:21:51.111Z,5.80
2023-02-23T07:24:19.320Z,5.88
2023-02-23T07:26:47.450Z,6.32
2023-02-23T07:29:16.037Z,5.82
2023-02-23T07:31:43.727Z,5.05
2023-02-23T07:34:11.746Z,4.88
2023-02-23T07:36:39.668Z,6.30
2023-02-23T07:39:07.897Z,6.35
2023-02-23T07:41:35.628Z,6.10
2023-02-23T07:44:03.774Z,5.93
2023-02-23T07:46:31.527Z,5.90
2023-02-23T07:48:59.496Z,6.03
2023-02-23T07:51:27.133Z,5.28
2023-02-23T07:53:55.364Z,5.78
2023-02-23T07:56:23.085Z,5.65
2023-02-23T07:58:51.033Z,6.28
2023-02-23T08:01:19.147Z,6.15
2023-02-23T08:03:49.754Z,6.57
2023-02-23T08:06:19.520Z,5.82
2023-02-23T08:08:47.624Z,6.68
2023-02-23T08:11:15.891Z,6.57
2023-02-23T08:13:43.975Z,6.30
2023-02-23T08:16:12.614Z,6.80
2023-02-23T08:18:40.730Z,5.97
2023-02-23T08:21:08.594Z,6.45
2023-02-23T08:23:36.560Z,6.38
2023-02-23T08:26:05.270Z,6.72
2023-02-23T08:28:33.220Z,6.90
2023-02-23T08:31:01.109Z,7.55
2023-02-23T08:33:29.377Z,6.93
2023-02-23T08:35:59.748Z,7.03
2023-02-23T08:38:27.679Z,6.65
2023-02-23T08:40:55.347Z,6.32
2023-02-23T08:43:23.362Z,5.97
2023-02-23T08:45:51.102Z,6.53
2023-02-23T08:48:19.458Z,6.20
2023-02-23T08:50:49.921Z,6.78
2023-02-23T08:53:18.820Z,6.28
2023-02-23T08:55:46.566Z,6.72
2023-02-23T08:58:14.676Z,6.90
2023-02-23T09:00:42.344Z,6.40
2023-02-23T09:03:10.332Z,6.50
2023-02-23T09:05:38.945Z,6.80
2023-02-23T09:08:07.239Z,6.80
2023-02-23T09:10:35.833Z,6.47
2023-02-23T09:13:03.810Z,7.13
2023-02-23T09:15:31.538Z,7.35
2023-02-23T09:18:03.265Z,7.25
2023-02-23T09:20:31.499Z,7.00
2023-02-23T09:22:59.447Z,7.70
2023-02-23T09:25:29.253Z,7.32
2023-02-23T09:27:59.608Z,7.00
2023-02-23T09:30:28.077Z,6.68
2023-02-23T09:32:56.621Z,7.43
2023-02-23T09:35:25.377Z,7.43
2023-02-23T09:37:55.918Z,7.65
2023-02-23T09:40:30.366Z,7.70
2023-02-23T09:43:22.615Z,6.70
2023-02-23T09:46:08.257Z,7.32
2023-02-23T09:48:36.326Z,7.68
2023-02-23T09:51:09.370Z,7.60
2023-02-23T09:53:51.177Z,7.88
2023-02-23T09:56:29.991Z,7.45
2023-02-23T09:58:58.805Z,7.47
2023-02-23T10:01:32.418Z,7.38
2023-02-23T10:06:35.214Z,7.33
2023-02-23T10:09:54.416Z,7.45
2023-02-23T10:12:41.073Z,7.13
2023-02-23T10:15:27.960Z,6.88
2023-02-23T10:18:45.355Z,7.40
2023-02-23T10:21:20.098Z,7.45
2023-02-23T10:26:44.334Z,7.22
2023-02-23T10:29:35.178Z,7.30
2023-02-23T10:32:14.470Z,7.25
2023-02-23T10:34:44.082Z,7.18
2023-02-23T10:37:13.231Z,6.95
2023-02-23T10:39:42.206Z,6.40
2023-02-23T10:42:17.478Z,6.70
2023-02-23T10:44:46.598Z,7.55
2023-02-23T10:47:21.766Z,6.30
2023-02-23T10:49:51.923Z,7.55
2023-02-23T10:52:43.090Z,7.38
2023-02-23T10:55:32.185Z,7.55
2023-02-23T10:58:18.935Z,7.70
2023-02-23T11:01:01.338Z,7.88
2023-02-23T11:03:57.618Z,7.97
2023-02-23T11:06:31.083Z,7.43
2023-02-23T11:08:59.041Z,7.05
2023-02-23T11:11:29.161Z,6.45
2023-02-23T11:13:58.214Z,7.43
2023-02-23T11:16:39.590Z,6.55
2023-02-23T11:19:38.285Z,7.55
2023-02-23T11:22:07.083Z,6.90
2023-02-23T11:24:39.655Z,6.53
2023-02-23T11:27:21.018Z,7.32
2023-02-23T11:29:51.022Z,7.45
2023-02-23T11:32:22.866Z,7.30
2023-02-23T11:35:15.368Z,7.07
2023-02-23T11:37:43.137Z,7.45
2023-02-23T11:40:32.127Z,7.80
2023-02-23T11:43:07.349Z,7.43
2023-02-23T11:45:59.484Z,6.57
2023-02-23T11:48:48.514Z,5.57
2023-02-23T11:51:37.087Z,7.15
2023-02-23T11:54:07.200Z,6.93
2023-02-23T11:56:36.091Z,7.03
2023-02-23T11:59:08.391Z,7.80
2023-02-23T12:01:44.734Z,7.40
2023-02-23T12:04:30.772Z,8.32
2023-02-23T12:07:20.634Z,7.47
2023-02-23T12:09:57.377Z,8.02
2023-02-23T12:12:28.167Z,8.10
2023-02-23T12:15:27.516Z,8.02
2023-02-23T12:18:04.407Z,7.35
2023-02-23T12:20:39.027Z,7.88
2023-02-23T12:23:21.694Z,7.72
2023-02-23T12:26:01.625Z,7.32
2023-02-23T12:28:35.575Z,8.00
2023-02-23T12:31:25.871Z,8.40
2023-02-23T12:34:27.634Z,8.30
2023-02-23T12:37:12.461Z,7.18
2023-02-23T12:39:46.455Z,8.07
2023-02-23T12:42:40.217Z,7.35
2023-02-23T12:45:36.985Z,6.63
2023-02-23T12:48:42.876Z,7.82
2023-02-23T12:51:32.970Z,7.20
2023-02-23T12:54:00.829Z,6.90
2023-02-23T12:56:41.507Z,7.68
2023-02-23T12:59:33.344Z,6.82
2023-02-23T13:02:21.698Z,6.68
2023-02-23T13:05:19.575Z,6.30
2023-02-23T13:07:55.447Z,6.78
2023-02-23T13:10:40.290Z,6.35
2023-02-23T13:13:31.282Z,6.32
2023-02-23T13:16:14.149Z,6.22
2023-02-23T13:18:45.048Z,6.25
2023-02-23T13:21:23.946Z,6.47
2023-02-23T13:23:55.364Z,6.45
2023-02-23T13:26:36.610Z,6.07
2023-02-23T13:29:15.336Z,6.20
2023-02-23T13:31:43.681Z,6.22
2023-02-23T13:34:33.421Z,6.30
2023-02-23T13:37:05.183Z,6.00
2023-02-23T13:39:48.156Z,6.00
2023-02-23T13:42:46.037Z,5.68
2023-02-23T13:45:50.739Z,6.10
2023-02-23T13:48:35.135Z,5.82
2023-02-23T13:51:27.112Z,6.50
2023-02-23T13:54:06.704Z,6.50
2023-02-23T13:56:48.097Z,6.88
2023-02-23T13:59:21.830Z,5.70
2023-02-23T14:01:53.407Z,6.63
2023-02-23T14:04:27.460Z,6.50
2023-02-23T14:07:28.326Z,6.82
2023-02-23T14:10:07.534Z,6.38
2023-02-23T14:12:39.867Z,6.93
2023-02-23T14:15:27.503Z,6.75
2023-02-23T14:18:00.520Z,6.28
2023-02-23T14:20:52.917Z,7.35
2023-02-23T14:23:21.041Z,7.47
2023-02-23T14:26:17.724Z,7.53
2023-02-23T14:29:07.562Z,7.65
2023-02-23T14:31:35.959Z,7.25
2023-02-23T14:34:09.305Z,5.07
2023-02-23T14:36:43.937Z,6.20
2023-02-23T14:39:25.502Z,6.10
2023-02-23T14:41:59.984Z,6.35
2023-02-23T14:44:45.256Z,6.95
2023-02-23T14:47:17.707Z,6.90
2023-02-23T14:49:58.658Z,6.35
2023-02-23T14:52:36.785Z,6.70
2023-02-23T14:55:17.200Z,6.93
2023-02-23T14:57:45.285Z,7.93
2023-02-23T15:00:23.548Z,7.18
2023-02-23T15:03:12.478Z,7.47
2023-02-23T15:05:52.756Z,7.80
2023-02-23T15:08:24.991Z,6.28
2023-02-23T15:11:03.531Z,7.57
2023-02-23T15:13:40.019Z,8.02
2023-02-23T15:16:35.037Z,7.82
2023-02-23T15:19:05.215Z,7.90
2023-02-23T15:21:36.038Z,8.40
2023-02-23T15:24:21.423Z,9.27
2023-02-23T15:26:49.668Z,8.90
2023-02-23T15:29:20.518Z,9.02
2023-02-23T15:31:52.337Z,9.98
2023-02-23T15:34:26.583Z,9.50
2023-02-23T15:36:59.466Z,10.45
2023-02-23T15:39:53.346Z,10.15
2023-02-23T15:42:33.612Z,10.32
2023-02-23T15:45:04.542Z,10.15
2023-02-23T15:47:36.354Z,11.35
2023-02-23T15:50:20.089Z,11.52
2023-02-23T15:53:03.477Z,11.30
2023-02-23T15:55:37.098Z,12.77
2023-02-23T16:00:51.510Z,12.02
2023-02-23T16:03:31.658Z,13.10
2023-02-23T16:06:09.055Z,12.88
2023-02-23T16:08:37.249Z,13.32
2023-02-23T16:11:16.229Z,13.02
2023-02-23T16:13:45.990Z,12.68
2023-02-23T16:16:20.538Z,13.75
2023-02-23T16:18:54.777Z,13.07
2023-02-23T16:21:25.303Z,16.60
2023-02-23T16:23:55.500Z,23.45
2023-02-23T16:26:34.619Z,20.88
2023-02-23T16:29:04.728Z,20.70
2023-02-23T16:31:47.665Z,19.67
2023-02-23T16:34:35.756Z,20.07
2023-02-23T16:37:19.756Z,16.98
2023-02-23T16:39:48.251Z,16.63
2023-02-23T16:42:32.352Z,16.35
2023-02-23T16:45:01.045Z,14.65
2023-02-23T16:47:49.393Z,15.77
2023-02-23T16:50:24.318Z,15.48
2023-02-23T16:52:53.805Z,15.00
2023-02-23T16:55:26.233Z,16.95
2023-02-23T16:58:07.792Z,16.75
2023-02-23T17:00:35.761Z,16.15
2023-02-23T17:03:06.271Z,16.65
2023-02-23T17:05:34.477Z,17.23
2023-02-23T17:08:02.106Z,16.60
2023-02-23T17:10:35.223Z,17.80
2023-02-23T17:13:12.743Z,17.73
2023-02-23T17:15:48.157Z,18.23
2023-02-23T17:18:15.954Z,19.08
2023-02-23T17:20:44.048Z,18.50
2023-02-23T17:23:11.822Z,19.83
2023-02-23T17:25:39.715Z,21.30
2023-02-23T17:28:07.392Z,19.52
2023-02-23T17:30:36.463Z,21.30
2023-02-23T17:33:05.367Z,21.42
2023-02-23T17:35:37.300Z,22.60
2023-02-23T17:38:06.601Z,21.80
2023-02-23T17:40:36.578Z,22.35
2023-02-23T17:43:09.759Z,24.58
2023-02-23T17:45:37.678Z,25.25
2023-02-23T17:48:05.650Z,25.10
2023-02-23T17:50:33.718Z,21.00
2023-02-23T17:53:01.457Z,19.98
2023-02-23T17:55:29.462Z,21.70
2023-02-23T17:57:57.055Z,21.88
2023-02-23T18:00:25.253Z,20.45
2023-02-23T18:02:53.001Z,19.70
2023-02-23T18:05:21.695Z,18.85
2023-02-23T18:07:49.400Z,17.95
2023-02-23T18:10:17.945Z,17.20
2023-02-23T18:12:45.745Z,17.23
2023-02-23T18:15:13.968Z,15.98
2023-02-23T18:17:41.726Z,16.75
2023-02-23T18:20:14.074Z,16.17
2023-02-23T18:22:43.124Z,15.50
2023-02-23T18:25:21.628Z,15.23
2023-02-23T18:27:51.322Z,16.73
2023-02-23T18:30:19.703Z,16.00
2023-02-23T18:32:48.208Z,15.90
2023-02-23T18:35:16.417Z,15.38
2023-02-23T18:37:44.218Z,15.40
2023-02-23T18:40:21.503Z,16.13
2023-02-23T18:42:49.556Z,15.48
2023-02-23T18:45:17.963Z,15.68
2023-02-23T18:47:45.603Z,16.58
2023-02-23T18:50:19.439Z,14.82
2023-02-23T18:55:22.382Z,15.40
2023-02-23T18:57:52.725Z,15.68
2023-02-23T19:00:21.249Z,15.30
2023-02-23T19:02:49.522Z,12.13
2023-02-23T19:05:20.741Z,14.07
2023-02-23T19:07:49.364Z,14.05
2023-02-23T19:10:17.396Z,13.45
2023-02-23T19:12:45.183Z,11.43
2023-02-23T19:15:13.531Z,11.77
2023-02-23T19:17:41.344Z,14.18
2023-02-23T19:20:16.063Z,13.30
2023-02-23T19:22:44.078Z,13.95
2023-02-23T19:25:14.540Z,12.98
2023-02-23T19:27:42.800Z,13.43
2023-02-23T19:30:12.133Z,12.65
2023-02-23T19:32:40.031Z,12.75
2023-02-23T19:35:10.863Z,13.18
2023-02-23T19:37:40.067Z,12.55
2023-02-23T19:40:08.945Z,13.10
2023-02-23T19:42:37.046Z,14.82
2023-02-23T19:45:05.382Z,12.93
2023-02-23T19:47:33.119Z,12.73
2023-02-23T19:50:01.129Z,13.07
2023-02-23T19:52:30.804Z,13.15
2023-02-23T19:54:59.049Z,12.85
2023-02-23T19:57:28.201Z,13.45
2023-02-23T19:59:56.173Z,14.13
2023-02-23T20:02:24.063Z,14.00
2023-02-23T20:04:52.243Z,13.85
2023-02-23T20:07:20.166Z,13.90
2023-02-23T20:09:48.242Z,13.93
2023-02-23T20:12:15.919Z,14.07
2023-02-23T20:14:44.952Z,14.27
2023-02-23T20:17:13.906Z,14.05
2023-02-23T20:19:41.984Z,14.30
2023-02-23T20:22:09.862Z,14.60
2023-02-23T20:24:37.922Z,14.55
2023-02-23T20:27:05.617Z,14.93
2023-02-23T20:29:34.308Z,13.93
2023-02-23T20:32:03.585Z,15.25
2023-02-23T20:34:31.964Z,15.77
2023-02-23T20:36:59.803Z,15.05
2023-02-23T20:39:27.932Z,15.55
2023-02-23T20:41:55.651Z,15.32
2023-02-23T20:44:24.787Z,15.32
2023-02-23T20:46:52.522Z,16.33
2023-02-23T20:49:22.746Z,17.35
2023-02-23T20:51:50.767Z,17.00
2023-02-23T20:54:19.017Z,16.98
2023-02-23T20:56:58.821Z,17.85
2023-02-23T20:59:31.025Z,18.17
2023-02-23T21:02:01.580Z,17.90
2023-02-23T21:04:29.713Z,20.52
2023-02-23T21:06:58.602Z,20.33
2023-02-23T21:09:26.660Z,21.23
2023-02-23T21:11:55.004Z,20.45
2023-02-23T21:14:23.433Z,21.95
2023-02-23T21:16:51.205Z,21.88
2023-02-23T21:19:22.740Z,22.65
2023-02-23T21:21:57.958Z,21.58
2023-02-23T21:24:26.907Z,23.05
2023-02-23T21:26:54.649Z,21.92
2023-02-23T21:29:24.058Z,23.35
2023-02-23T21:31:52.627Z,23.80
2023-02-23T21:34:20.765Z,23.35
2023-02-23T21:36:49.994Z,23.65
2023-02-23T21:39:17.990Z,24.25
2023-02-23T21:41:45.597Z,24.38
2023-02-23T21:44:13.514Z,24.60
2023-02-23T21:46:41.194Z,24.52
2023-02-23T21:49:09.961Z,25.15
2023-02-23T21:51:37.948Z,24.00
2023-02-23T21:54:06.470Z,24.48
2023-02-23T21:56:34.982Z,24.67
2023-02-23T21:59:08.295Z,24.52
2023-02-23T22:01:38.446Z,23.87
2023-02-23T22:04:08.334Z,23.02
2023-02-23T22:06:41.568Z,24.58
2023-02-23T22:09:11.532Z,24.20
2023-02-23T22:11:43.072Z,26.15
2023-02-23T22:14:11.516Z,21.20
2023-02-23T22:16:43.536Z,24.60
2023-02-23T22:19:12.947Z,25.63
2023-02-23T22:21:42.317Z,22.73
2023-02-23T22:24:13.788Z,24.48
2023-02-23T22:26:54.066Z,23.30
2023-02-23T22:29:26.290Z,25.40
2023-02-23T22:31:54.283Z,24.85
2023-02-23T22:34:22.427Z,24.60
2023-02-23T22:36:50.613Z,25.65
2023-02-23T22:39:18.959Z,24.33
2023-02-23T22:41:48.085Z,24.55
2023-02-23T22:44:18.780Z,24.77
2023-02-23T22:46:48.612Z,24.45
2023-02-23T22:49:19.969Z,25.77
2023-02-23T22:51:48.377Z,24.33
2023-02-23T22:54:17.515Z,25.77
2023-02-23T22:56:46.926Z,25.73
2023-02-23T22:59:17.504Z,25.88
2023-02-23T23:01:45.304Z,26.38
2023-02-23T23:04:14.933Z,26.40
2023-02-23T23:06:43.884Z,27.10
2023-02-23T23:09:13.204Z,27.85
2023-02-23T23:11:41.834Z,27.50
2023-02-23T23:14:11.284Z,26.10
2023-02-23T23:16:52.514Z,28.13
2023-02-23T23:19:26.542Z,27.58
2023-02-23T23:21:56.046Z,26.27
2023-02-23T23:24:25.527Z,26.92
2023-02-23T23:27:00.115Z,27.75
2023-02-23T23:29:32.513Z,26.42
2023-02-23T23:32:02.693Z,27.27
2023-02-23T23:34:33.533Z,27.35
2023-02-23T23:37:02.888Z,28.15
2023-02-23T23:39:31.136Z,26.38
2023-02-23T23:42:01.801Z,26.80
2023-02-23T23:44:29.993Z,28.08
2023-02-23T23:46:58.429Z,26.52
2023-02-23T23:49:26.794Z,26.75
2023-02-23T23:51:56.664Z,27.13
2023-02-23T23:54:34.727Z,27.58
2023-02-23T23:57:02.549Z,27.20
2023-02-23T23:59:31.806Z,27.58
